PRIVATE WETTERSTATION BILLIGHEIM-ALLFELD                       ZURCK
Wetterdaten: Sonntag, 21.05.2017
Datum Zeit Temp. A. Temp. A. min Temp. A. max Feuchte A. Luftdruck Regen Wind Richtung Richtung Sonnenschein ET Solar Taupunkt Windchill Windben Empfang
21.05.2017 00:00 8,4 C 8,4 C 8,6 C 87 % 1025,6 hPa 0,0 l/m 0,0 km/h (0 Bft) N 0 0 min 0,000 mm 0 W/m 6,4 C 8,4 C 0,0 km/h (0 Bft) 100 %
21.05.2017 00:10 8,1 C 8,1 C 8,4 C 87 % 1025,6 hPa 0,0 l/m 0,0 km/h (0 Bft) N 0 0 min 0,000 mm 0 W/m 6,1 C 8,1 C 0,0 km/h (0 Bft) 78 %
21.05.2017 00:20 7,9 C 7,9 C 8,1 C 88 % 1025,7 hPa 0,0 l/m 0,0 km/h (0 Bft) N 0 0 min 0,000 mm 0 W/m 6,0 C 7,9 C 0,0 km/h (0 Bft) 100 %
21.05.2017 00:30 7,7 C 7,7 C 7,9 C 88 % 1025,8 hPa 0,0 l/m 0,0 km/h (0 Bft) N 0 0 min 0,000 mm 0 W/m 5,8 C 7,7 C 0,0 km/h (0 Bft) 100 %
21.05.2017 00:40 7,4 C 7,4 C 7,7 C 88 % 1025,9 hPa 0,0 l/m 0,0 km/h (0 Bft) N 0 0 min 0,000 mm 0 W/m 5,5 C 7,4 C 0,0 km/h (0 Bft) 100 %
21.05.2017 00:50 7,3 C 7,3 C 7,4 C 89 % 1025,9 hPa 0,0 l/m 0,0 km/h (0 Bft) N 0 0 min 0,000 mm 0 W/m 5,6 C 7,3 C 0,0 km/h (0 Bft) 100 %
21.05.2017 01:00 7,1 C 7,1 C 7,3 C 89 % 1025,9 hPa 0,0 l/m 0,0 km/h (0 Bft) N 0 0 min 0,000 mm 0 W/m 5,4 C 7,1 C 0,0 km/h (0 Bft) 100 %
21.05.2017 01:10 6,9 C 6,9 C 7,1 C 89 % 1026,0 hPa 0,0 l/m 0,0 km/h (0 Bft) N 0 0 min 0,000 mm 0 W/m 5,2 C 6,9 C 0,0 km/h (0 Bft) 100 %
21.05.2017 01:20 6,7 C 6,7 C 6,9 C 90 % 1026,0 hPa 0,0 l/m 0,0 km/h (0 Bft) N 0 0 min 0,000 mm 0 W/m 5,2 C 6,7 C 0,0 km/h (0 Bft) 100 %
21.05.2017 01:30 6,7 C 6,7 C 6,8 C 90 % 1026,1 hPa 0,0 l/m 0,0 km/h (0 Bft) N 0 0 min 0,000 mm 0 W/m 5,2 C 6,7 C 0,0 km/h (0 Bft) 100 %
21.05.2017 01:40 6,6 C 6,6 C 6,7 C 90 % 1026,1 hPa 0,0 l/m 0,0 km/h (0 Bft) N 0 0 min 0,000 mm 0 W/m 5,1 C 6,6 C 0,0 km/h (0 Bft) 100 %
21.05.2017 01:50 6,6 C 6,6 C 6,6 C 90 % 1026,1 hPa 0,0 l/m 0,0 km/h (0 Bft) N 0 0 min 0,000 mm 0 W/m 5,1 C 6,6 C 0,0 km/h (0 Bft) 100 %
21.05.2017 02:00 6,4 C 6,4 C 6,6 C 90 % 1026,1 hPa 0,0 l/m 0,0 km/h (0 Bft) N 0 0 min 0,000 mm 0 W/m 4,9 C 6,4 C 0,0 km/h (0 Bft) 100 %
21.05.2017 02:10 6,3 C 6,3 C 6,4 C 90 % 1026,1 hPa 0,0 l/m 0,0 km/h (0 Bft) N 0 0 min 0,000 mm 0 W/m 4,8 C 6,3 C 0,0 km/h (0 Bft) 100 %
21.05.2017 02:20 6,2 C 6,2 C 6,3 C 90 % 1026,1 hPa 0,0 l/m 0,0 km/h (0 Bft) N 0 0 min 0,000 mm 0 W/m 4,7 C 6,2 C 0,0 km/h (0 Bft) 100 %
21.05.2017 02:30 6,1 C 6,1 C 6,2 C 91 % 1026,1 hPa 0,0 l/m 0,0 km/h (0 Bft) N 0 0 min 0,000 mm 0 W/m 4,7 C 6,1 C 0,0 km/h (0 Bft) 100 %
21.05.2017 02:40 6,0 C 6,0 C 6,1 C 90 % 1026,1 hPa 0,0 l/m 0,0 km/h (0 Bft) N 0 0 min 0,000 mm 0 W/m 4,5 C 6,0 C 0,0 km/h (0 Bft) 100 %
21.05.2017 02:50 5,9 C 5,9 C 6,0 C 91 % 1026,0 hPa 0,0 l/m 0,0 km/h (0 Bft) N 0 0 min 0,000 mm 0 W/m 4,5 C 5,9 C 0,0 km/h (0 Bft) 100 %
21.05.2017 03:00 5,8 C 5,8 C 5,9 C 91 % 1026,0 hPa 0,0 l/m 0,0 km/h (0 Bft) N 0 0 min 0,000 mm 0 W/m 4,4 C 5,8 C 0,0 km/h (0 Bft) 100 %
21.05.2017 03:10 5,6 C 5,6 C 5,8 C 91 % 1026,0 hPa 0,0 l/m 0,0 km/h (0 Bft) N 0 0 min 0,000 mm 0 W/m 4,2 C 5,6 C 0,0 km/h (0 Bft) 100 %
21.05.2017 03:20 5,4 C 5,4 C 5,6 C 91 % 1026,0 hPa 0,0 l/m 0,0 km/h (0 Bft) N 0 0 min 0,000 mm 0 W/m 4,1 C 5,4 C 0,0 km/h (0 Bft) 100 %
21.05.2017 03:30 5,3 C 5,3 C 5,4 C 91 % 1026,0 hPa 0,0 l/m 0,0 km/h (0 Bft) N 0 0 min 0,000 mm 0 W/m 4,0 C 5,3 C 0,0 km/h (0 Bft) 100 %
21.05.2017 03:40 5,2 C 5,2 C 5,3 C 91 % 1026,1 hPa 0,0 l/m 0,0 km/h (0 Bft) N 0 0 min 0,000 mm 0 W/m 3,9 C 5,2 C 0,0 km/h (0 Bft) 100 %
21.05.2017 03:50 5,1 C 5,1 C 5,2 C 91 % 1026,1 hPa 0,0 l/m 0,0 km/h (0 Bft) N 0 0 min 0,000 mm 0 W/m 3,8 C 5,1 C 0,0 km/h (0 Bft) 99 %
21.05.2017 04:00 4,9 C 4,9 C 5,1 C 91 % 1026,1 hPa 0,0 l/m 0,0 km/h (0 Bft) N 0 0 min 0,000 mm 0 W/m 3,6 C 4,9 C 0,0 km/h (0 Bft) 100 %
21.05.2017 04:10 4,8 C 4,8 C 4,9 C 91 % 1026,0 hPa 0,0 l/m 0,0 km/h (0 Bft) N 0 0 min 0,000 mm 0 W/m 3,5 C 4,8 C 0,0 km/h (0 Bft) 100 %
21.05.2017 04:20 4,7 C 4,7 C 4,8 C 91 % 1026,1 hPa 0,0 l/m 0,0 km/h (0 Bft) N 0 0 min 0,000 mm 0 W/m 3,4 C 4,7 C 0,0 km/h (0 Bft) 100 %
21.05.2017 04:30 4,8 C 4,7 C 4,8 C 91 % 1026,2 hPa 0,0 l/m 0,0 km/h (0 Bft) N 0 0 min 0,000 mm 0 W/m 3,5 C 4,8 C 0,0 km/h (0 Bft) 100 %
21.05.2017 04:40 4,8 C 4,8 C 4,8 C 91 % 1026,2 hPa 0,0 l/m 0,0 km/h (0 Bft) N 0 0 min 0,000 mm 0 W/m 3,5 C 4,8 C 0,0 km/h (0 Bft) 100 %
21.05.2017 04:50 4,9 C 4,8 C 4,9 C 91 % 1026,2 hPa 0,0 l/m 0,0 km/h (0 Bft) N 0 0 min 0,000 mm 0 W/m 3,6 C 4,9 C 0,0 km/h (0 Bft) 100 %
21.05.2017 05:00 4,9 C 4,9 C 5,0 C 91 % 1026,2 hPa 0,0 l/m 0,0 km/h (0 Bft) N 0 0 min 0,000 mm 0 W/m 3,6 C 4,9 C 0,0 km/h (0 Bft) 99 %
21.05.2017 05:10 4,9 C 4,9 C 4,9 C 91 % 1026,1 hPa 0,0 l/m 0,0 km/h (0 Bft) N 0 0 min 0,000 mm 0 W/m 3,6 C 4,9 C 0,0 km/h (0 Bft) 100 %
21.05.2017 05:20 4,7 C 4,7 C 4,9 C 91 % 1026,2 hPa 0,0 l/m 0,0 km/h (0 Bft) N 0 0 min 0,000 mm 0 W/m 3,4 C 4,7 C 0,0 km/h (0 Bft) 98 %
21.05.2017 05:30 4,6 C 4,6 C 4,7 C 91 % 1026,2 hPa 0,0 l/m 0,0 km/h (0 Bft) N 0 0 min 0,000 mm 0 W/m 3,3 C 4,6 C 0,0 km/h (0 Bft) 100 %
21.05.2017 05:40 4,5 C 4,5 C 4,6 C 91 % 1026,2 hPa 0,0 l/m 0,0 km/h (0 Bft) N 0 0 min 0,000 mm 5 W/m 3,2 C 4,5 C 0,0 km/h (0 Bft) 100 %
21.05.2017 05:50 4,4 C 4,4 C 4,5 C 91 % 1026,3 hPa 0,0 l/m 0,0 km/h (0 Bft) N 0 0 min 0,000 mm 7 W/m 3,1 C 4,4 C 0,0 km/h (0 Bft) 100 %
21.05.2017 06:00 4,2 C 4,2 C 4,4 C 91 % 1026,4 hPa 0,0 l/m 0,0 km/h (0 Bft) N 0 0 min 0,000 mm 9 W/m 2,9 C 4,2 C 0,0 km/h (0 Bft) 100 %
21.05.2017 06:10 4,1 C 4,1 C 4,2 C 91 % 1026,4 hPa 0,0 l/m 0,0 km/h (0 Bft) N 0 0 min 0,000 mm 11 W/m 2,8 C 4,1 C 0,0 km/h (0 Bft) 100 %
21.05.2017 06:20 4,1 C 4,1 C 4,2 C 91 % 1026,4 hPa 0,0 l/m 0,0 km/h (0 Bft) N 0 0 min 0,000 mm 12 W/m 2,8 C 4,1 C 0,0 km/h (0 Bft) 100 %
21.05.2017 06:30 4,1 C 4,1 C 4,1 C 91 % 1026,5 hPa 0,0 l/m 0,0 km/h (0 Bft) N 0 0 min 0,000 mm 14 W/m 2,8 C 4,1 C 0,0 km/h (0 Bft) 100 %
21.05.2017 06:40 4,1 C 4,1 C 4,1 C 91 % 1026,7 hPa 0,0 l/m 0,0 km/h (0 Bft) N 0 0 min 0,000 mm 18 W/m 2,8 C 4,1 C 0,0 km/h (0 Bft) 100 %
21.05.2017 06:50 4,2 C 4,1 C 4,2 C 91 % 1026,7 hPa 0,0 l/m 0,0 km/h (0 Bft) N 0 0 min 0,000 mm 19 W/m 2,9 C 4,2 C 0,0 km/h (0 Bft) 100 %
21.05.2017 07:00 4,3 C 4,2 C 4,3 C 91 % 1026,7 hPa 0,0 l/m 0,0 km/h (0 Bft) N 0 0 min 0,000 mm 19 W/m 3,0 C 4,3 C 0,0 km/h (0 Bft) 100 %
21.05.2017 07:10 4,4 C 4,3 C 4,4 C 91 % 1026,8 hPa 0,0 l/m 0,0 km/h (0 Bft) N 0 0 min 0,000 mm 21 W/m 3,1 C 4,4 C 0,0 km/h (0 Bft) 100 %
21.05.2017 07:20 4,8 C 4,4 C 4,8 C 91 % 1026,7 hPa 0,0 l/m 0,0 km/h (0 Bft) N 0 0 min 0,000 mm 23 W/m 3,5 C 4,8 C 0,0 km/h (0 Bft) 100 %
21.05.2017 07:30 5,1 C 4,8 C 5,1 C 91 % 1026,8 hPa 0,0 l/m 0,0 km/h (0 Bft) N 0 0 min 0,000 mm 25 W/m 3,8 C 5,1 C 0,0 km/h (0 Bft) 100 %
21.05.2017 07:40 5,4 C 5,1 C 5,4 C 91 % 1026,8 hPa 0,0 l/m 0,0 km/h (0 Bft) N 0 0 min 0,000 mm 26 W/m 4,1 C 5,4 C 0,0 km/h (0 Bft) 100 %
21.05.2017 07:50 5,6 C 5,4 C 5,6 C 91 % 1026,8 hPa 0,0 l/m 0,0 km/h (0 Bft) N 0 0 min 0,000 mm 28 W/m 4,2 C 5,6 C 0,0 km/h (0 Bft) 100 %
21.05.2017 08:00 5,9 C 5,6 C 5,9 C 91 % 1026,9 hPa 0,0 l/m 0,0 km/h (0 Bft) N 0 0 min 0,000 mm 32 W/m 4,5 C 5,9 C 0,0 km/h (0 Bft) 100 %
21.05.2017 08:10 6,4 C 5,9 C 6,4 C 91 % 1026,8 hPa 0,0 l/m 0,0 km/h (0 Bft) N 0 0 min 0,000 mm 67 W/m 5,0 C 6,4 C 0,0 km/h (0 Bft) 100 %
21.05.2017 08:20 7,3 C 6,4 C 7,3 C 91 % 1026,8 hPa 0,0 l/m 0,0 km/h (0 Bft) N 0 10 min 0,000 mm 374 W/m 5,9 C 7,3 C 0,0 km/h (0 Bft) 99 %
21.05.2017 08:30 8,6 C 7,4 C 8,6 C 92 % 1026,8 hPa 0,0 l/m 0,0 km/h (0 Bft) N 0 10 min 0,000 mm 406 W/m 7,4 C 8,6 C 0,0 km/h (0 Bft) 97 %
21.05.2017 08:40 9,8 C 8,6 C 9,8 C 92 % 1026,8 hPa 0,0 l/m 0,0 km/h (0 Bft) N 0 10 min 0,000 mm 443 W/m 8,6 C 9,8 C 0,0 km/h (0 Bft) 98 %
21.05.2017 08:50 10,8 C 9,8 C 10,8 C 91 % 1026,8 hPa 0,0 l/m 0,0 km/h (0 Bft) N 0 10 min 0,000 mm 480 W/m 9,4 C 10,8 C 0,0 km/h (0 Bft) 98 %
21.05.2017 09:00 11,8 C 10,8 C 11,8 C 91 % 1026,9 hPa 0,0 l/m 0,0 km/h (0 Bft) W 270 10 min 0,152 mm 513 W/m 10,4 C 11,8 C 1,6 km/h (1 Bft) 98 %
21.05.2017 09:10 12,8 C 11,8 C 12,8 C 89 % 1026,9 hPa 0,0 l/m 0,0 km/h (0 Bft) N 0 10 min 0,000 mm 550 W/m 11,0 C 12,8 C 0,0 km/h (0 Bft) 98 %
21.05.2017 09:20 13,9 C 12,8 C 13,9 C 85 % 1026,9 hPa 0,0 l/m 0,0 km/h (0 Bft) W 270 10 min 0,000 mm 580 W/m 11,4 C 13,9 C 3,2 km/h (1 Bft) 97 %
21.05.2017 09:30 14,7 C 13,9 C 14,7 C 79 % 1026,8 hPa 0,0 l/m 0,0 km/h (0 Bft) W 270 10 min 0,000 mm 610 W/m 11,1 C 14,7 C 4,8 km/h (1 Bft) 98 %
21.05.2017 09:40 15,3 C 14,7 C 15,3 C 81 % 1026,8 hPa 0,0 l/m 3,2 km/h (1 Bft) S-SW 202 10 min 0,000 mm 636 W/m 12,1 C 15,3 C 8,0 km/h (2 Bft) 97 %
21.05.2017 09:50 15,7 C 15,3 C 15,7 C 79 % 1026,8 hPa 0,0 l/m 0,0 km/h (0 Bft) S-SW 202 10 min 0,000 mm 664 W/m 12,1 C 15,7 C 3,2 km/h (1 Bft) 98 %
21.05.2017 10:00 16,3 C 15,7 C 16,3 C 71 % 1026,8 hPa 0,0 l/m 0,0 km/h (0 Bft) S-SW 202 10 min 0,305 mm 701 W/m 11,0 C 16,3 C 8,0 km/h (2 Bft) 98 %
21.05.2017 10:10 16,4 C 16,3 C 16,4 C 71 % 1026,8 hPa 0,0 l/m 0,0 km/h (0 Bft) S-SW 202 10 min 0,000 mm 744 W/m 11,1 C 16,4 C 1,6 km/h (1 Bft) 98 %
21.05.2017 10:20 17,1 C 16,4 C 17,1 C 69 % 1026,5 hPa 0,0 l/m 0,0 km/h (0 Bft) N 0 10 min 0,000 mm 766 W/m 11,4 C 17,1 C 0,0 km/h (0 Bft) 98 %
21.05.2017 10:30 17,0 C 17,0 C 17,1 C 65 % 1026,5 hPa 0,0 l/m 1,6 km/h (1 Bft) W-SW 247 10 min 0,000 mm 773 W/m 10,4 C 17,0 C 8,0 km/h (2 Bft) 97 %
21.05.2017 10:40 17,1 C 17,0 C 17,1 C 61 % 1026,4 hPa 0,0 l/m 1,6 km/h (1 Bft) NW 315 10 min 0,000 mm 796 W/m 9,5 C 17,1 C 8,0 km/h (2 Bft) 98 %
21.05.2017 10:50 17,1 C 17,1 C 17,1 C 63 % 1026,4 hPa 0,0 l/m 1,6 km/h (1 Bft) NW 315 10 min 0,000 mm 816 W/m 10,0 C 17,1 C 9,7 km/h (2 Bft) 97 %
21.05.2017 11:00 17,6 C 17,1 C 17,6 C 61 % 1026,4 hPa 0,0 l/m 0,0 km/h (0 Bft) NW 315 10 min 0,406 mm 833 W/m 10,0 C 17,6 C 3,2 km/h (1 Bft) 98 %
21.05.2017 11:10 18,1 C 17,6 C 18,1 C 63 % 1026,4 hPa 0,0 l/m 0,0 km/h (0 Bft) O-SO 112 10 min 0,000 mm 874 W/m 10,9 C 18,1 C 6,4 km/h (2 Bft) 97 %
21.05.2017 11:20 18,1 C 18,1 C 18,2 C 58 % 1026,4 hPa 0,0 l/m 1,6 km/h (1 Bft) N-NW 337 10 min 0,000 mm 921 W/m 9,7 C 18,1 C 8,0 km/h (2 Bft) 98 %
21.05.2017 11:30 17,7 C 17,7 C 18,1 C 63 % 1026,3 hPa 0,0 l/m 0,0 km/h (0 Bft) O-NO 67 10 min 0,000 mm 211 W/m 10,6 C 17,7 C 1,6 km/h (1 Bft) 98 %
21.05.2017 11:40 17,3 C 17,3 C 17,7 C 62 % 1026,3 hPa 0,0 l/m 1,6 km/h (1 Bft) NW 315 10 min 0,000 mm 246 W/m 9,9 C 17,3 C 6,4 km/h (2 Bft) 96 %
21.05.2017 11:50 17,2 C 17,2 C 17,4 C 58 % 1026,3 hPa 0,0 l/m 1,6 km/h (1 Bft) NW 315 10 min 0,000 mm 178 W/m 8,9 C 17,2 C 8,0 km/h (2 Bft) 98 %
21.05.2017 12:00 17,0 C 17,0 C 17,2 C 57 % 1026,2 hPa 0,0 l/m 1,6 km/h (1 Bft) O-SO 112 10 min 0,279 mm 218 W/m 8,4 C 17,0 C 16,1 km/h (3 Bft) 97 %
21.05.2017 12:10 17,4 C 17,0 C 17,4 C 59 % 1026,2 hPa 0,0 l/m 0,0 km/h (0 Bft) NW 315 10 min 0,000 mm 1063 W/m 9,3 C 17,4 C 8,0 km/h (2 Bft) 98 %
21.05.2017 12:20 18,4 C 17,5 C 18,4 C 56 % 1026,1 hPa 0,0 l/m 1,6 km/h (1 Bft) O-SO 112 10 min 0,000 mm 1055 W/m 9,5 C 18,4 C 11,3 km/h (2 Bft) 98 %
21.05.2017 12:30 18,8 C 18,4 C 18,8 C 53 % 1026,0 hPa 0,0 l/m 0,0 km/h (0 Bft) SO 135 10 min 0,000 mm 1058 W/m 9,0 C 18,8 C 1,6 km/h (1 Bft) 98 %
21.05.2017 12:40 18,9 C 18,8 C 19,0 C 54 % 1025,8 hPa 0,0 l/m 1,6 km/h (1 Bft) NW 315 10 min 0,000 mm 1051 W/m 9,4 C 18,9 C 11,3 km/h (2 Bft) 98 %
21.05.2017 12:50 18,3 C 18,3 C 18,9 C 56 % 1025,8 hPa 0,0 l/m 0,0 km/h (0 Bft) N 0 10 min 0,000 mm 197 W/m 9,4 C 18,3 C 0,0 km/h (0 Bft) 97 %
21.05.2017 13:00 17,9 C 17,9 C 18,3 C 59 % 1025,7 hPa 0,0 l/m 1,6 km/h (1 Bft) N-NW 337 10 min 0,406 mm 1085 W/m 9,8 C 17,9 C 8,0 km/h (2 Bft) 97 %
21.05.2017 13:10 18,8 C 17,9 C 18,8 C 55 % 1025,5 hPa 0,0 l/m 1,6 km/h (1 Bft) NW 315 10 min 0,000 mm 1109 W/m 9,6 C 18,8 C 8,0 km/h (2 Bft) 88 %
21.05.2017 13:20 18,6 C 18,6 C 18,8 C 58 % 1025,4 hPa 0,0 l/m 0,0 km/h (0 Bft) N-NW 337 10 min 0,000 mm 241 W/m 10,2 C 18,6 C 1,6 km/h (1 Bft) 98 %
21.05.2017 13:30 18,2 C 18,2 C 18,6 C 59 % 1025,3 hPa 0,0 l/m 0,0 km/h (0 Bft) S-SO 157 10 min 0,000 mm 1130 W/m 10,1 C 18,2 C 4,8 km/h (1 Bft) 98 %
21.05.2017 13:40 18,6 C 18,2 C 18,6 C 56 % 1025,2 hPa 0,0 l/m 0,0 km/h (0 Bft) SO 135 10 min 0,000 mm 1123 W/m 9,6 C 18,6 C 6,4 km/h (2 Bft) 98 %
21.05.2017 13:50 18,2 C 18,2 C 18,6 C 59 % 1025,2 hPa 0,0 l/m 0,0 km/h (0 Bft) O-SO 112 10 min 0,000 mm 1100 W/m 10,1 C 18,2 C 8,0 km/h (2 Bft) 98 %
21.05.2017 14:10 18,6 C 18,2 C 18,7 C 60 % 1025,0 hPa 0,0 l/m 0,0 km/h (0 Bft) S-SW 205 20 min 0,306 mm 225 W/m 10,7 C 18,6 C 1,6 km/h (1 Bft) 100 %
21.05.2017 14:20 18,9 C 18,5 C 18,9 C 55 % 1025,0 hPa 0,0 l/m 0,0 km/h (0 Bft) O-SO 110 10 min 0,000 mm 1125 W/m 9,7 C 18,9 C 1,6 km/h (1 Bft) 100 %
21.05.2017 14:30 18,8 C 18,8 C 19,1 C 53 % 1024,8 hPa 0,0 l/m 0,4 km/h (0 Bft) O-SO 121 10 min 0,000 mm 995 W/m 9,0 C 18,8 C 6,4 km/h (2 Bft) 100 %
21.05.2017 14:40 19,5 C 18,8 C 19,5 C 55 % 1024,7 hPa 0,0 l/m 3,0 km/h (1 Bft) SO 134 10 min 0,000 mm 1111 W/m 10,2 C 19,5 C 11,3 km/h (2 Bft) 100 %
21.05.2017 14:50 19,5 C 19,5 C 19,7 C 56 % 1024,7 hPa 0,0 l/m 2,4 km/h (1 Bft) O-SO 115 10 min 0,000 mm 243 W/m 10,5 C 19,5 C 14,5 km/h (3 Bft) 99 %
21.05.2017 15:00 19,4 C 19,3 C 19,5 C 58 % 1024,3 hPa 0,0 l/m 0,7 km/h (0 Bft) NW 315 10 min 0,356 mm 830 W/m 10,9 C 19,4 C 8,0 km/h (2 Bft) 100 %
21.05.2017 15:10 19,9 C 19,4 C 19,9 C 53 % 1024,1 hPa 0,0 l/m 3,4 km/h (1 Bft) N-NW 342 10 min 0,000 mm 744 W/m 10,0 C 19,9 C 16,1 km/h (3 Bft) 100 %
21.05.2017 15:20 19,7 C 19,7 C 19,9 C 55 % 1024,1 hPa 0,0 l/m 4,2 km/h (1 Bft) NW 315 10 min 0,000 mm 267 W/m 10,4 C 19,7 C 11,3 km/h (2 Bft) 100 %
21.05.2017 15:30 19,8 C 19,7 C 19,8 C 51 % 1024,0 hPa 0,0 l/m 1,4 km/h (1 Bft) W 281 10 min 0,000 mm 153 W/m 9,4 C 19,8 C 6,4 km/h (2 Bft) 100 %
21.05.2017 15:40 20,1 C 19,8 C 20,1 C 50 % 1024,0 hPa 0,0 l/m 2,4 km/h (1 Bft) O-NO 65 10 min 0,000 mm 153 W/m 9,3 C 20,1 C 8,0 km/h (2 Bft) 99 %
21.05.2017 15:50 20,1 C 20,1 C 20,2 C 51 % 1023,9 hPa 0,0 l/m 4,3 km/h (1 Bft) O 87 10 min 0,000 mm 153 W/m 9,6 C 20,1 C 17,7 km/h (3 Bft) 100 %
21.05.2017 16:00 20,0 C 19,9 C 20,1 C 54 % 1023,9 hPa 0,0 l/m 0,6 km/h (0 Bft) N-NO 27 10 min 0,178 mm 257 W/m 10,4 C 20,0 C 6,4 km/h (2 Bft) 100 %
21.05.2017 16:10 19,7 C 19,7 C 20,0 C 53 % 1023,7 hPa 0,0 l/m 4,5 km/h (1 Bft) O-SO 120 0 min 0,000 mm 137 W/m 9,8 C 19,7 C 16,1 km/h (3 Bft) 100 %
21.05.2017 16:20 19,7 C 19,6 C 19,7 C 52 % 1023,5 hPa 0,0 l/m 0,0 km/h (0 Bft) S 182 10 min 0,000 mm 671 W/m 9,6 C 19,7 C 1,6 km/h (1 Bft) 100 %
21.05.2017 16:30 20,1 C 19,7 C 20,1 C 53 % 1023,4 hPa 0,0 l/m 0,6 km/h (0 Bft) NW 315 10 min 0,000 mm 448 W/m 10,2 C 20,1 C 8,0 km/h (2 Bft) 100 %
21.05.2017 16:40 20,2 C 20,1 C 20,2 C 58 % 1023,3 hPa 0,0 l/m 0,5 km/h (0 Bft) W 279 0 min 0,000 mm 125 W/m 11,7 C 20,2 C 9,7 km/h (2 Bft) 100 %
21.05.2017 16:50 20,4 C 20,2 C 20,4 C 56 % 1023,1 hPa 0,0 l/m 2,8 km/h (1 Bft) NW 313 10 min 0,000 mm 229 W/m 11,3 C 20,4 C 9,7 km/h (2 Bft) 100 %
21.05.2017 17:00 20,4 C 20,4 C 20,6 C 55 % 1023,0 hPa 0,0 l/m 0,6 km/h (0 Bft) N-NO 13 0 min 0,203 mm 151 W/m 11,1 C 20,4 C 8,0 km/h (2 Bft) 100 %
21.05.2017 17:10 19,7 C 19,7 C 20,4 C 54 % 1022,9 hPa 0,0 l/m 0,4 km/h (0 Bft) N-NW 342 0 min 0,000 mm 95 W/m 10,1 C 19,7 C 6,4 km/h (2 Bft) 100 %
21.05.2017 17:20 19,6 C 19,6 C 19,7 C 58 % 1022,9 hPa 0,0 l/m 1,9 km/h (1 Bft) NW 317 0 min 0,000 mm 141 W/m 11,1 C 19,6 C 8,0 km/h (2 Bft) 100 %
21.05.2017 17:30 19,9 C 19,6 C 19,9 C 51 % 1022,7 hPa 0,0 l/m 1,3 km/h (1 Bft) SO 146 10 min 0,000 mm 192 W/m 9,5 C 19,9 C 11,3 km/h (2 Bft) 99 %
21.05.2017 17:40 20,3 C 19,9 C 20,3 C 57 % 1022,6 hPa 0,0 l/m 0,1 km/h (0 Bft) N-NO 16 0 min 0,000 mm 144 W/m 11,5 C 20,3 C 4,8 km/h (1 Bft) 100 %
21.05.2017 17:50 20,3 C 20,3 C 20,4 C 58 % 1022,5 hPa 0,0 l/m 0,1 km/h (0 Bft) SO 135 0 min 0,000 mm 62 W/m 11,8 C 20,3 C 4,8 km/h (1 Bft) 100 %
21.05.2017 18:00 19,6 C 19,6 C 20,3 C 57 % 1022,5 hPa 0,0 l/m 0,2 km/h (0 Bft) SO 133 0 min 0,076 mm 79 W/m 10,8 C 19,6 C 4,8 km/h (1 Bft) 100 %
21.05.2017 18:10 19,6 C 19,5 C 19,6 C 56 % 1022,3 hPa 0,0 l/m 0,2 km/h (0 Bft) O 99 0 min 0,000 mm 84 W/m 10,6 C 19,6 C 4,8 km/h (1 Bft) 99 %
21.05.2017 18:20 19,7 C 19,6 C 19,7 C 55 % 1022,4 hPa 0,0 l/m 1,0 km/h (0 Bft) N-NO 13 0 min 0,000 mm 76 W/m 10,4 C 19,7 C 9,7 km/h (2 Bft) 100 %
21.05.2017 18:30 19,8 C 19,7 C 19,8 C 60 % 1022,3 hPa 0,0 l/m 0,0 km/h (0 Bft) SO 134 0 min 0,000 mm 67 W/m 11,8 C 19,8 C 1,6 km/h (1 Bft) 100 %
21.05.2017 18:40 19,8 C 19,8 C 19,8 C 57 % 1022,2 hPa 0,0 l/m 0,2 km/h (0 Bft) W-NW 286 0 min 0,000 mm 79 W/m 11,0 C 19,8 C 3,2 km/h (1 Bft) 100 %
21.05.2017 18:50 19,7 C 19,7 C 19,8 C 55 % 1022,0 hPa 0,0 l/m 0,8 km/h (0 Bft) W-NW 300 0 min 0,000 mm 70 W/m 10,4 C 19,7 C 6,4 km/h (2 Bft) 99 %
21.05.2017 19:00 19,6 C 19,6 C 19,7 C 58 % 1022,0 hPa 0,0 l/m 0,1 km/h (0 Bft) O 94 0 min 0,051 mm 56 W/m 11,1 C 19,6 C 3,2 km/h (1 Bft) 99 %
21.05.2017 19:10 19,3 C 19,3 C 19,6 C 57 % 1021,9 hPa 0,0 l/m 0,4 km/h (0 Bft) O-NO 74 0 min 0,000 mm 51 W/m 10,6 C 19,3 C 4,8 km/h (1 Bft) 99 %
21.05.2017 19:20 19,1 C 19,1 C 19,3 C 61 % 1021,8 hPa 0,0 l/m 0,0 km/h (0 Bft) O-NO 62 0 min 0,000 mm 49 W/m 11,4 C 19,1 C 1,6 km/h (1 Bft) 99 %
21.05.2017 19:30 18,7 C 18,7 C 19,1 C 59 % 1021,8 hPa 0,0 l/m 0,0 km/h (0 Bft) O-NO 62 0 min 0,000 mm 46 W/m 10,5 C 18,7 C 0,0 km/h (0 Bft) 99 %
21.05.2017 19:40 18,4 C 18,4 C 18,7 C 61 % 1021,6 hPa 0,0 l/m 0,0 km/h (0 Bft) O-NO 62 0 min 0,000 mm 40 W/m 10,7 C 18,4 C 0,0 km/h (0 Bft) 98 %
21.05.2017 19:50 18,2 C 18,2 C 18,4 C 61 % 1021,7 hPa 0,0 l/m 0,0 km/h (0 Bft) O-NO 62 0 min 0,000 mm 35 W/m 10,6 C 18,2 C 0,0 km/h (0 Bft) 99 %
21.05.2017 20:00 18,0 C 18,0 C 18,2 C 63 % 1021,6 hPa 0,0 l/m 0,0 km/h (0 Bft) O-NO 62 0 min 0,025 mm 32 W/m 10,8 C 18,0 C 1,6 km/h (1 Bft) 90 %
21.05.2017 20:10 17,8 C 17,8 C 18,0 C 66 % 1021,6 hPa 0,0 l/m 0,0 km/h (0 Bft) O-NO 62 0 min 0,000 mm 25 W/m 11,4 C 17,8 C 0,0 km/h (0 Bft) 98 %
21.05.2017 20:20 17,4 C 17,4 C 17,8 C 67 % 1021,7 hPa 0,0 l/m 0,0 km/h (0 Bft) O-NO 62 0 min 0,000 mm 23 W/m 11,2 C 17,4 C 0,0 km/h (0 Bft) 100 %
21.05.2017 20:30 17,1 C 17,1 C 17,4 C 68 % 1021,6 hPa 0,0 l/m 0,0 km/h (0 Bft) O-NO 62 0 min 0,000 mm 19 W/m 11,1 C 17,1 C 0,0 km/h (0 Bft) 99 %
21.05.2017 20:40 16,8 C 16,8 C 17,1 C 71 % 1021,6 hPa 0,0 l/m 0,0 km/h (0 Bft) O-NO 62 0 min 0,000 mm 11 W/m 11,5 C 16,8 C 0,0 km/h (0 Bft) 99 %
21.05.2017 20:50 16,3 C 16,3 C 16,8 C 71 % 1021,6 hPa 0,0 l/m 0,0 km/h (0 Bft) O-NO 62 0 min 0,000 mm 5 W/m 11,0 C 16,3 C 0,0 km/h (0 Bft) 100 %
21.05.2017 21:00 15,8 C 15,8 C 16,3 C 72 % 1021,5 hPa 0,0 l/m 0,0 km/h (0 Bft) O-NO 62 0 min 0,026 mm 0 W/m 10,8 C 15,8 C 0,0 km/h (0 Bft) 99 %
21.05.2017 21:10 15,4 C 15,3 C 15,8 C 73 % 1021,6 hPa 0,0 l/m 0,0 km/h (0 Bft) N 0 0 min 0,000 mm 0 W/m 10,6 C 15,4 C 0,0 km/h (0 Bft) 97 %
21.05.2017 21:20 15,1 C 15,1 C 15,3 C 73 % 1021,5 hPa 0,0 l/m 0,0 km/h (0 Bft) N 0 0 min 0,000 mm 0 W/m 10,3 C 15,1 C 0,0 km/h (0 Bft) 98 %
21.05.2017 21:30 14,6 C 14,6 C 15,0 C 74 % 1021,6 hPa 0,0 l/m 0,0 km/h (0 Bft) N 0 0 min 0,000 mm 0 W/m 10,0 C 14,6 C 0,0 km/h (0 Bft) 97 %
21.05.2017 21:40 14,3 C 14,3 C 14,6 C 74 % 1021,7 hPa 0,0 l/m 0,0 km/h (0 Bft) N 0 0 min 0,000 mm 0 W/m 9,7 C 14,3 C 0,0 km/h (0 Bft) 98 %
21.05.2017 21:50 14,2 C 14,2 C 14,3 C 74 % 1021,6 hPa 0,0 l/m 0,0 km/h (0 Bft) N 0 0 min 0,000 mm 0 W/m 9,6 C 14,2 C 0,0 km/h (0 Bft) 97 %
21.05.2017 22:00 14,1 C 14,1 C 14,2 C 74 % 1021,6 hPa 0,0 l/m 0,0 km/h (0 Bft) N 0 0 min 0,000 mm 0 W/m 9,5 C 14,1 C 0,0 km/h (0 Bft) 98 %
21.05.2017 22:10 14,1 C 14,1 C 14,1 C 73 % 1021,6 hPa 0,0 l/m 0,0 km/h (0 Bft) N 0 0 min 0,000 mm 0 W/m 9,3 C 14,1 C 0,0 km/h (0 Bft) 98 %
21.05.2017 22:20 14,1 C 14,1 C 14,1 C 73 % 1021,6 hPa 0,0 l/m 0,0 km/h (0 Bft) N 0 0 min 0,000 mm 0 W/m 9,3 C 14,1 C 0,0 km/h (0 Bft) 98 %
21.05.2017 22:30 14,1 C 14,1 C 14,1 C 73 % 1021,6 hPa 0,0 l/m 0,0 km/h (0 Bft) O-NO 67 0 min 0,000 mm 0 W/m 9,3 C 14,1 C 1,6 km/h (1 Bft) 97 %
21.05.2017 22:40 14,1 C 14,1 C 14,1 C 74 % 1021,5 hPa 0,0 l/m 0,0 km/h (0 Bft) N 0 0 min 0,000 mm 0 W/m 9,5 C 14,1 C 0,0 km/h (0 Bft) 98 %
21.05.2017 22:50 14,1 C 14,1 C 14,1 C 75 % 1021,4 hPa 0,0 l/m 0,0 km/h (0 Bft) N 0 0 min 0,000 mm 0 W/m 9,7 C 14,1 C 0,0 km/h (0 Bft) 98 %
21.05.2017 23:00 14,0 C 14,0 C 14,1 C 74 % 1021,4 hPa 0,0 l/m 0,0 km/h (0 Bft) N 0 0 min 0,025 mm 0 W/m 9,4 C 14,0 C 0,0 km/h (0 Bft) 97 %
21.05.2017 23:10 14,1 C 14,0 C 14,1 C 74 % 1021,3 hPa 0,0 l/m 0,0 km/h (0 Bft) O-NO 67 0 min 0,000 mm 0 W/m 9,5 C 14,1 C 3,2 km/h (1 Bft) 98 %
21.05.2017 23:20 14,1 C 14,1 C 14,1 C 74 % 1021,2 hPa 0,0 l/m 0,0 km/h (0 Bft) NO 45 0 min 0,000 mm 0 W/m 9,5 C 14,1 C 6,4 km/h (2 Bft) 100 %
21.05.2017 23:30 14,2 C 14,1 C 14,2 C 73 % 1021,1 hPa 0,0 l/m 0,0 km/h (0 Bft) N-NO 22 0 min 0,000 mm 0 W/m 9,4 C 14,2 C 6,4 km/h (2 Bft) 100 %
21.05.2017 23:40 14,3 C 14,2 C 14,3 C 72 % 1021,0 hPa 0,0 l/m 0,0 km/h (0 Bft) N 360 0 min 0,000 mm 0 W/m 9,3 C 14,3 C 6,4 km/h (2 Bft) 100 %
21.05.2017 23:50 14,4 C 14,3 C 14,4 C 72 % 1021,0 hPa 0,0 l/m 0,0 km/h (0 Bft) N-NO 22 0 min 0,000 mm 0 W/m 9,4 C 14,4 C 3,2 km/h (1 Bft) 100 %
_ Min-Zeit 06:10 06:10 06:30 15:40 23:40 - 00:00 - - - - - 06:10 06:10 00:00 00:10
Minimum _ 4,1 C 4,1 C 4,1 C 50 % 1021,0 hPa - 0,0 km/h (0 Bft) - - - - - 2,8 C 4,1 C 0,0 km/h (0 Bft) 78 %
_ Max-Zeit 17:00 17:00 17:00 08:30 08:00 00:00 16:10 - - 14:10 11:00 13:30 09:50 16:50 15:50 00:20
Maximum _ 20,6 C 20,4 C 20,6 C 92 % 1026,9 hPa 0,0 l/m 4,5 km/h
O-SO (1 Bft)
- - 20 min 0,406 mm 1130 W/m 12,1 C 20,4 C 17,7 km/h
NW (3 Bft)
100 %
Durchschnitt _ 13,1 C 13,0 C 13,2 C 74 % 1024,7 hPa #0,0 l/m 0,4 km/h (0 Bft) NW - #8:30 h #2,794 mm 367 W/m 8,1 C 13,1 C 3,1 km/h (1 Bft) 99 %
PRIVATE WETTERSTATION BILLIGHEIM-ALLFELD - www.neckar-odenwald-wetter.de - Holger Sonntag